Time;durP1;ratioP1;P1;durP2;ratioP2;P2;SDS_P1;SDS_P2;PMS_P1;PMS_P2;Temp;Humidity;BMP_temperature;BMP_pressure;BME280_temperature;BME280_humidity;BME280_pressure;Samples;Min_cycle;Max_cycle;Signal;HPM_P1;HPM_P2
2023/07/19 04:04:17;;;;;;;3.73;3.37;;;17.40;99.90;;;;;;6151057;23;20404;-68
2023/07/19 04:06:43;;;;;;;3.87;3.57;;;17.50;99.90;;;;;;4975105;28;20507;-67
2023/07/19 04:09:11;;;;;;;5.30;3.50;;;17.40;99.90;;;;;;4975492;28;20532;-66
2023/07/19 04:11:37;;;;;;;3.43;3.00;;;17.40;99.90;;;;;;4977022;28;20465;-67
2023/07/19 04:14:02;;;;;;;3.83;3.50;;;17.30;99.90;;;;;;4976327;28;20462;-67
2023/07/19 04:16:28;;;;;;;5.43;4.10;;;17.30;99.90;;;;;;4976227;28;20268;-69
2023/07/19 04:18:53;;;;;;;3.50;3.17;;;17.30;99.90;;;;;;4976575;28;20184;-67
2023/07/19 04:21:19;;;;;;;4.63;4.23;;;17.30;99.90;;;;;;4964849;28;20190;-67
2023/07/19 04:23:45;;;;;;;3.93;3.63;;;17.30;99.90;;;;;;4956589;29;20575;-67
2023/07/19 04:26:11;;;;;;;3.03;2.83;;;17.40;99.90;;;;;;4956917;28;20435;-67
2023/07/19 04:28:36;;;;;;;4.17;3.77;;;17.50;99.90;;;;;;4956874;29;20171;-68
2023/07/19 04:31:02;;;;;;;3.53;3.23;;;17.40;99.90;;;;;;4956694;28;20226;-67
2023/07/19 04:33:27;;;;;;;5.77;3.83;;;17.50;99.90;;;;;;4967452;28;20227;-67
2023/07/19 04:35:53;;;;;;;3.80;3.50;;;17.70;99.90;;;;;;4974665;28;20271;-66
2023/07/19 04:38:19;;;;;;;4.90;4.43;;;17.90;99.90;;;;;;4976109;28;20164;-68
2023/07/19 04:40:44;;;;;;;3.83;3.53;;;18.00;99.90;;;;;;4958608;28;20581;-68
2023/07/19 04:43:10;;;;;;;4.67;2.97;;;18.10;99.90;;;;;;4975834;28;20183;-68
2023/07/19 04:45:35;;;;;;;5.57;2.93;;;18.10;99.90;;;;;;4975416;28;20272;-67
2023/07/19 04:48:03;;;;;;;4.70;3.37;;;18.10;99.90;;;;;;4975734;28;20179;-68
2023/07/19 04:50:29;;;;;;;4.00;3.70;;;18.20;99.90;;;;;;4975694;28;20197;-68
2023/07/19 04:52:54;;;;;;;5.63;4.50;;;18.30;99.90;;;;;;4975551;28;20488;-66
2023/07/19 04:55:21;;;;;;;4.47;3.43;;;18.30;99.90;;;;;;4975105;28;20242;-67
2023/07/19 04:57:46;;;;;;;5.47;3.97;;;18.40;99.90;;;;;;4975611;28;20175;-68
2023/07/19 05:00:14;;;;;;;3.90;3.23;;;18.50;99.90;;;;;;4984749;28;20393;-64
2023/07/19 05:02:43;;;;;;;9.20;3.97;;;18.50;99.90;;;;;;4995086;28;20717;-68
2023/07/19 05:05:09;;;;;;;4.40;3.43;;;18.70;99.90;;;;;;4994530;28;20838;-68
2023/07/19 05:07:36;;;;;;;3.53;3.23;;;18.80;99.90;;;;;;4977168;28;20389;-67
2023/07/19 05:10:03;;;;;;;3.90;3.60;;;18.90;99.90;;;;;;4994925;28;20374;-68
2023/07/19 05:12:29;;;;;;;4.83;4.43;;;19.00;99.90;;;;;;4994759;28;20517;-68
2023/07/19 05:14:56;;;;;;;4.13;3.70;;;19.10;99.90;;;;;;4994265;28;20438;-67
2023/07/19 05:17:21;;;;;;;7.70;4.60;;;19.20;99.90;;;;;;4994480;28;20407;-67
2023/07/19 05:19:47;;;;;;;4.90;3.33;;;19.30;99.90;;;;;;4990965;28;20916;-68
2023/07/19 05:22:12;;;;;;;4.07;3.67;;;19.40;99.90;;;;;;4994463;28;20686;-67
2023/07/19 05:24:38;;;;;;;4.07;3.33;;;19.50;99.90;;;;;;4972357;28;20211;-68
2023/07/19 05:27:04;;;;;;;2.43;2.33;;;19.60;99.90;;;;;;4972686;28;20188;-68
2023/07/19 05:29:30;;;;;;;3.67;3.37;;;19.70;99.90;;;;;;4974525;28;20816;-68
2023/07/19 05:31:56;;;;;;;3.23;2.97;;;19.80;99.90;;;;;;4957257;28;20481;-67
2023/07/19 05:34:22;;;;;;;4.17;3.77;;;19.80;99.90;;;;;;4973721;28;20206;-67
2023/07/19 05:36:47;;;;;;;3.43;2.70;;;19.90;99.90;;;;;;4974553;28;20247;-66
2023/07/19 05:39:13;;;;;;;4.07;3.67;;;20.00;99.90;;;;;;4974496;28;20875;-69
2023/07/19 05:41:39;;;;;;;4.73;3.33;;;20.00;99.90;;;;;;4957594;28;20176;-68
2023/07/19 05:44:05;;;;;;;3.83;2.80;;;20.00;99.90;;;;;;4974248;28;20180;-67
2023/07/19 05:46:33;;;;;;;4.23;3.20;;;20.00;99.90;;;;;;4973685;28;20436;-67
2023/07/19 05:48:58;;;;;;;3.63;2.43;;;20.10;99.90;;;;;;4974098;28;20561;-67
2023/07/19 05:51:24;;;;;;;2.70;2.50;;;20.20;99.90;;;;;;4974351;28;20438;-67
2023/07/19 05:53:49;;;;;;;2.90;2.67;;;20.40;99.90;;;;;;4974083;28;20318;-67
2023/07/19 05:56:15;;;;;;;3.00;2.70;;;20.50;99.90;;;;;;4974121;28;20562;-68
2023/07/19 05:58:40;;;;;;;3.40;2.87;;;20.60;99.90;;;;;;4974244;28;20255;-68
2023/07/19 06:01:08;;;;;;;3.00;2.70;;;20.80;99.90;;;;;;4974370;28;20206;-67
2023/07/19 06:03:34;;;;;;;2.73;2.53;;;21.00;99.90;;;;;;4974202;28;20195;-67
2023/07/19 06:06:03;;;;;;;3.13;2.87;;;21.10;99.90;;;;;;4974256;28;20456;-67
2023/07/19 06:08:29;;;;;;;2.90;2.70;;;21.30;99.90;;;;;;4974006;28;20179;-68
2023/07/19 06:10:55;;;;;;;3.00;2.70;;;21.40;99.90;;;;;;4974485;28;20789;-73
2023/07/19 06:13:20;;;;;;;5.50;2.70;;;21.60;99.90;;;;;;4973933;28;20177;-71
2023/07/19 06:15:46;;;;;;;5.00;2.83;;;21.70;99.90;;;;;;4974227;28;20235;-71
2023/07/19 06:18:12;;;;;;;2.27;2.07;;;21.70;99.90;;;;;;4974181;28;20396;-70
2023/07/19 06:20:37;;;;;;;3.00;2.70;;;21.80;99.90;;;;;;4974505;28;20203;-69
2023/07/19 06:23:03;;;;;;;2.30;2.10;;;21.90;99.90;;;;;;4974254;28;20562;-72
2023/07/19 06:25:29;;;;;;;2.60;2.40;;;22.00;99.90;;;;;;4974101;28;20657;-70
2023/07/19 06:27:54;;;;;;;2.83;1.93;;;22.10;99.90;;;;;;4973898;28;20253;-68
2023/07/19 06:30:20;;;;;;;2.30;2.10;;;22.20;99.90;;;;;;4973816;28;20288;-68
2023/07/19 06:32:46;;;;;;;2.57;2.20;;;22.30;99.90;;;;;;4974366;28;20208;-70
2023/07/19 06:35:11;;;;;;;5.23;3.07;;;22.30;99.90;;;;;;4973997;28;20481;-69
2023/07/19 06:37:37;;;;;;;3.23;2.93;;;22.40;99.90;;;;;;4974242;28;20210;-73
2023/07/19 06:40:03;;;;;;;2.60;2.07;;;22.60;99.90;;;;;;4978075;28;20253;-69
2023/07/19 06:42:30;;;;;;;3.63;2.53;;;22.70;99.90;;;;;;4978285;28;20174;-71
2023/07/19 06:44:56;;;;;;;3.67;2.37;;;22.80;99.90;;;;;;4977764;28;20408;-72
2023/07/19 06:47:22;;;;;;;3.10;2.90;;;22.80;99.90;;;;;;4977908;28;20423;-69
2023/07/19 06:49:47;;;;;;;2.73;2.50;;;22.90;99.90;;;;;;4960554;28;20292;-69
2023/07/19 06:52:13;;;;;;;4.17;3.20;;;23.00;99.90;;;;;;4960687;28;20573;-72
2023/07/19 06:54:39;;;;;;;3.40;3.10;;;23.10;99.90;;;;;;4977503;28;20199;-69
2023/07/19 06:57:05;;;;;;;2.60;2.40;;;23.10;99.90;;;;;;4977855;28;20179;-69
2023/07/19 06:59:31;;;;;;;2.87;2.67;;;23.20;99.90;;;;;;4960239;28;20258;-67
2023/07/19 07:01:57;;;;;;;2.43;2.23;;;23.20;99.90;;;;;;4977889;28;20377;-73
2023/07/19 07:04:23;;;;;;;2.40;2.20;;;23.40;99.90;;;;;;4977662;28;20196;-73
2023/07/19 07:06:49;;;;;;;2.93;2.73;;;23.70;99.90;;;;;;4977665;28;20188;-72
2023/07/19 07:09:15;;;;;;;2.60;2.40;;;24.00;99.90;;;;;;4977416;28;20414;-71
2023/07/19 07:11:40;;;;;;;5.03;2.80;;;24.30;99.90;;;;;;4977422;28;20199;-70
2023/07/19 07:14:06;;;;;;;2.93;2.63;;;24.50;99.90;;;;;;4977737;28;20172;-68
2023/07/19 07:16:31;;;;;;;2.50;2.30;;;24.70;99.90;;;;;;4977562;28;20189;-78
2023/07/19 07:19:00;;;;;;;3.03;2.23;;;24.90;99.90;;;;;;4977248;28;20635;-78
2023/07/19 07:21:26;;;;;;;2.93;2.67;;;25.10;99.90;;;;;;4976617;28;20184;-69
2023/07/19 07:23:52;;;;;;;2.50;2.30;;;25.30;99.90;;;;;;4977374;28;20877;-68
2023/07/19 07:26:17;;;;;;;2.70;2.50;;;25.50;99.90;;;;;;4977483;28;20406;-68
2023/07/19 07:28:46;;;;;;;2.70;2.40;;;25.70;99.90;;;;;;4977184;28;20176;-71
2023/07/19 07:31:11;;;;;;;2.70;2.50;;;25.90;99.90;;;;;;4960039;28;20574;-73
2023/07/19 07:33:38;;;;;;;3.10;2.77;;;26.10;99.90;;;;;;4977192;28;20384;-75
2023/07/19 07:36:03;;;;;;;2.60;2.40;;;26.40;99.90;;;;;;4977409;28;20202;-76
2023/07/19 07:38:29;;;;;;;3.43;2.93;;;26.80;99.90;;;;;;4977043;28;20394;-73
2023/07/19 07:41:04;;;;;;;2.63;2.43;;;27.40;99.90;;;;;;4977103;28;20631;-75
2023/07/19 07:43:30;;;;;;;2.80;2.50;;;28.10;99.90;;;;;;4976944;28;20179;-75
2023/07/19 07:45:56;;;;;;;2.27;2.17;;;29.40;99.70;;;;;;4977059;28;20433;-69
2023/07/19 07:48:23;;;;;;;2.30;2.10;;;30.60;97.00;;;;;;4976820;28;20485;-76
2023/07/19 07:50:51;;;;;;;3.10;2.80;;;31.60;95.10;;;;;;4975795;28;20215;-71
2023/07/19 07:53:22;;;;;;;2.77;2.57;;;32.60;91.80;;;;;;4959522;28;20423;-69
2023/07/19 07:55:48;;;;;;;3.33;2.70;;;33.50;90.40;;;;;;4976902;28;20921;-72
2023/07/19 07:58:14;;;;;;;3.07;2.87;;;34.40;85.20;;;;;;4976592;28;20450;-75
2023/07/19 08:00:41;;;;;;;2.93;2.73;;;35.30;86.40;;;;;;4976965;28;20507;-74
2023/07/19 08:03:07;;;;;;;3.03;2.83;;;36.00;86.70;;;;;;4976761;28;20180;-69
2023/07/19 08:05:35;;;;;;;2.80;2.60;;;36.50;79.50;;;;;;4976336;28;20455;-73
2023/07/19 08:08:03;;;;;;;2.83;2.63;;;37.10;79.40;;;;;;4977186;28;20188;-72
2023/07/19 08:10:29;;;;;;;3.00;2.80;;;37.70;73.70;;;;;;4976806;28;20407;-71
2023/07/19 08:12:55;;;;;;;2.90;2.70;;;38.10;71.10;;;;;;4976921;28;20403;-72
2023/07/19 08:15:21;;;;;;;3.07;2.87;;;38.00;71.20;;;;;;4976565;28;20188;-74
2023/07/19 08:17:46;;;;;;;2.60;2.50;;;38.00;71.20;;;;;;4976480;28;20183;-69
2023/07/19 08:20:12;;;;;;;3.10;2.90;;;38.20;67.50;;;;;;4976782;28;20180;-73
2023/07/19 08:22:38;;;;;;;5.83;5.43;;;38.60;71.50;;;;;;4976567;28;20200;-69
2023/07/19 08:25:05;;;;;;;3.13;2.93;;;39.00;71.70;;;;;;4976105;28;20198;-70
2023/07/19 08:27:32;;;;;;;2.80;2.60;;;39.40;68.40;;;;;;4976579;28;20176;-72
2023/07/19 08:30:00;;;;;;;2.60;2.50;;;39.70;66.80;;;;;;4959166;28;20944;-73
2023/07/19 08:32:32;;;;;;;2.70;2.60;;;40.20;64.00;;;;;;4976459;28;20751;-73
2023/07/19 08:34:57;;;;;;;2.40;2.30;;;40.60;63.10;;;;;;4975888;28;20455;-69
2023/07/19 08:37:28;;;;;;;3.00;2.70;;;40.90;61.50;;;;;;4976352;28;20921;-72
2023/07/19 08:39:54;;;;;;;2.30;2.20;;;41.10;61.80;;;;;;4976249;28;20554;-73
2023/07/19 08:42:19;;;;;;;2.73;2.53;;;40.90;57.90;;;;;;4958629;28;20458;-68
2023/07/19 08:44:48;;;;;;;2.20;2.10;;;40.90;57.10;;;;;;4975734;28;20196;-68
2023/07/19 08:47:16;;;;;;;1.70;1.70;;;40.80;53.80;;;;;;4958758;28;20183;-69
2023/07/19 08:49:42;;;;;;;1.70;1.60;;;40.90;53.80;;;;;;4975665;28;20876;-72
2023/07/19 08:52:08;;;;;;;2.03;1.93;;;41.00;53.30;;;;;;4975910;28;20439;-68
2023/07/19 08:54:34;;;;;;;1.70;1.70;;;41.00;52.90;;;;;;4975533;28;20462;-72
2023/07/19 08:57:03;;;;;;;2.37;2.27;;;41.00;51.10;;;;;;4975938;28;20431;-73
2023/07/19 08:59:29;;;;;;;1.70;1.60;;;40.90;48.50;;;;;;4975424;28;20172;-69
2023/07/19 09:01:54;;;;;;;1.40;1.40;;;40.40;48.30;;;;;;4975669;28;20462;-73
2023/07/19 09:04:20;;;;;;;1.70;1.60;;;40.20;50.20;;;;;;4975355;28;20231;-74
2023/07/19 09:06:51;;;;;;;1.70;1.60;;;40.00;51.10;;;;;;4975675;28;20192;-72
2023/07/19 09:09:17;;;;;;;1.90;1.80;;;40.20;51.50;;;;;;4975542;28;20638;-68
2023/07/19 09:11:46;;;;;;;1.93;1.83;;;40.50;49.10;;;;;;4975269;28;20433;-75
2023/07/19 09:14:12;;;;;;;1.70;1.60;;;40.60;48.80;;;;;;4974935;28;20215;-70
2023/07/19 09:16:39;;;;;;;1.93;1.83;;;40.40;50.00;;;;;;4975688;28;20446;-71
2023/07/19 09:19:07;;;;;;;2.00;1.90;;;40.60;50.00;;;;;;4975121;28;20180;-74
2023/07/19 09:21:44;;;;;;;2.27;2.17;;;40.90;50.00;;;;;;4975313;28;20463;-73
2023/07/19 09:24:14;;;;;;;2.20;2.10;;;41.30;51.80;;;;;;4957377;28;20423;-69
2023/07/19 09:26:51;;;;;;;2.27;2.10;;;41.40;48.20;;;;;;4975386;28;20474;-68
2023/07/19 09:29:18;;;;;;;1.87;1.77;;;41.60;46.20;;;;;;4975236;28;20403;-69
2023/07/19 09:31:54;;;;;;;2.07;1.90;;;41.50;47.80;;;;;;4975406;28;20411;-69
2023/07/19 09:34:21;;;;;;;2.20;2.10;;;41.50;45.30;;;;;;4974614;28;20415;-67
2023/07/19 09:36:51;;;;;;;2.60;2.00;;;41.20;46.10;;;;;;4975262;28;20439;-68
2023/07/19 09:39:17;;;;;;;1.87;1.77;;;40.90;47.30;;;;;;4975187;28;20402;-72
2023/07/19 09:41:52;;;;;;;2.10;2.00;;;40.80;46.90;;;;;;4975116;28;20945;-72
2023/07/19 09:44:17;;;;;;;2.03;1.93;;;40.60;46.20;;;;;;4956930;28;20614;-74
2023/07/19 09:46:45;;;;;;;2.37;2.27;;;41.10;46.30;;;;;;4975020;28;20435;-69
2023/07/19 09:49:11;;;;;;;2.20;2.10;;;41.20;46.20;;;;;;4974541;28;20545;-74
2023/07/19 09:51:42;;;;;;;2.03;1.97;;;41.50;46.40;;;;;;4974603;28;20466;-73
2023/07/19 09:54:15;;;;;;;1.70;1.70;;;41.70;45.70;;;;;;4974624;28;20761;-74
2023/07/19 09:56:44;;;;;;;2.20;2.10;;;41.70;45.10;;;;;;4974909;28;20419;-75
2023/07/19 09:59:16;;;;;;;1.80;1.80;;;41.70;43.60;;;;;;4974546;28;20983;-73
2023/07/19 10:01:43;;;;;;;3.13;2.93;;;41.50;43.70;;;;;;4974932;28;20455;-68
2023/07/19 10:04:24;;;;;;;2.00;1.90;;;41.50;43.30;;;;;;4956603;28;20426;-74
2023/07/19 10:07:12;;;;;;;1.50;1.50;;;41.20;42.50;;;;;;4974237;28;20490;-72
2023/07/19 10:09:43;;;;;;;1.97;1.87;;;41.30;43.60;;;;;;4974760;28;20472;-71
2023/07/19 10:12:16;;;;;;;1.87;1.77;;;41.30;42.90;;;;;;4974768;28;20523;-69
2023/07/19 10:15:05;;;;;;;2.40;2.20;;;41.40;43.90;;;;;;4973392;28;20451;-72
2023/07/19 10:17:40;;;;;;;1.90;1.80;;;41.70;41.90;;;;;;4974568;28;20786;-73
2023/07/19 10:20:12;;;;;;;2.20;2.10;;;41.30;39.70;;;;;;4974717;28;20417;-68
2023/07/19 10:22:58;;;;;;;1.60;1.60;;;40.80;41.60;;;;;;4974550;28;20497;-73
2023/07/19 10:25:46;;;;;;;1.60;1.60;;;40.40;41.40;;;;;;4973780;28;20446;-71
2023/07/19 10:28:13;;;;;;;1.80;1.80;;;40.60;43.90;;;;;;4974793;28;20937;-71
2023/07/19 10:31:02;;;;;;;2.10;2.00;;;40.50;42.90;;;;;;4974648;28;20490;-72
2023/07/19 10:33:30;;;;;;;1.63;1.53;;;40.40;42.90;;;;;;4974074;28;20435;-74
2023/07/19 10:36:07;;;;;;;2.17;2.07;;;40.20;42.00;;;;;;4956992;28;20462;-68
2023/07/19 10:38:32;;;;;;;1.50;1.50;;;40.60;42.60;;;;;;4972119;28;20458;-68
2023/07/19 10:41:03;;;;;;;1.50;1.50;;;40.40;42.60;;;;;;4971427;28;20982;-68
2023/07/19 10:43:31;;;;;;;1.47;1.40;;;40.30;41.00;;;;;;4938344;28;20555;-68
2023/07/19 10:46:03;;;;;;;1.30;1.30;;;40.00;41.30;;;;;;4974138;28;20442;-71
2023/07/19 10:48:30;;;;;;;1.30;1.27;;;39.60;41.80;;;;;;4974230;28;20419;-74
2023/07/19 10:50:57;;;;;;;1.60;1.50;;;39.30;41.40;;;;;;4974170;28;20408;-74
2023/07/19 10:53:23;;;;;;;1.77;1.67;;;39.40;42.90;;;;;;4973904;28;20407;-72
2023/07/19 10:56:02;;;;;;;1.80;1.70;;;39.70;42.20;;;;;;4974009;28;20444;-70
2023/07/19 10:58:30;;;;;;;1.43;1.33;;;39.70;41.20;;;;;;4956931;28;20851;-72
2023/07/19 11:00:56;;;;;;;1.70;1.60;;;39.80;42.60;;;;;;4971298;28;20464;-70
2023/07/19 11:03:24;;;;;;;1.67;1.57;;;39.70;40.20;;;;;;4962834;28;20413;-73
2023/07/19 11:05:51;;;;;;;1.30;1.23;;;39.10;41.50;;;;;;4973635;28;20205;-73
2023/07/19 11:08:24;;;;;;;1.30;1.20;;;38.40;42.70;;;;;;4974020;28;20431;-68
2023/07/19 11:10:51;;;;;;;1.50;1.40;;;37.90;44.00;;;;;;4974007;28;20414;-70
2023/07/19 11:13:18;;;;;;;1.40;1.30;;;37.40;43.50;;;;;;4973859;28;20471;-71
2023/07/19 11:15:55;;;;;;;1.30;1.20;;;36.60;44.00;;;;;;4973462;28;20526;-67
2023/07/19 11:18:27;;;;;;;1.80;1.70;;;35.60;45.50;;;;;;4973982;28;20408;-70
2023/07/19 11:20:57;;;;;;;1.03;1.03;;;35.00;45.40;;;;;;4974007;28;21045;-69
2023/07/19 11:23:27;;;;;;;1.57;1.47;;;34.50;47.40;;;;;;4973675;28;20400;-73
2023/07/19 11:26:03;;;;;;;1.40;1.30;;;34.10;48.00;;;;;;4976785;28;20987;-75
2023/07/19 11:28:45;;;;;;;1.40;1.30;;;33.60;47.60;;;;;;4994862;28;20407;-73
2023/07/19 11:31:33;;;;;;;2.10;1.57;;;33.10;48.10;;;;;;4996594;28;20503;-70
2023/07/19 11:34:08;;;;;;;1.20;1.10;;;32.70;48.80;;;;;;4991725;28;20447;-69
2023/07/19 11:36:35;;;;;;;1.40;1.30;;;32.40;50.10;;;;;;4977262;28;20396;-72
2023/07/19 11:39:02;;;;;;;1.30;1.20;;;32.30;51.10;;;;;;4977175;28;20751;-72
2023/07/19 11:41:31;;;;;;;1.60;1.30;;;32.10;52.00;;;;;;4977137;28;20458;-74
2023/07/19 11:43:57;;;;;;;2.83;1.83;;;31.90;50.90;;;;;;4976613;28;20888;-66
2023/07/19 11:46:23;;;;;;;1.57;1.40;;;31.70;51.20;;;;;;4977075;28;20481;-75
2023/07/19 11:48:49;;;;;;;1.77;1.67;;;31.60;50.90;;;;;;4976535;28;20511;-69
2023/07/19 11:51:15;;;;;;;2.30;1.47;;;31.50;51.40;;;;;;4976810;28;20658;-69
2023/07/19 11:53:43;;;;;;;1.63;1.53;;;31.30;51.70;;;;;;4976482;28;20423;-73
2023/07/19 11:56:09;;;;;;;1.40;1.30;;;31.30;53.80;;;;;;4976857;28;20406;-67
2023/07/19 11:58:35;;;;;;;1.27;1.20;;;31.30;54.70;;;;;;4976592;28;20849;-67
2023/07/19 12:01:02;;;;;;;1.50;1.33;;;31.40;52.90;;;;;;4976939;28;20442;-68
2023/07/19 12:03:27;;;;;;;1.70;1.60;;;31.60;51.90;;;;;;4976638;28;20175;-69
2023/07/19 12:05:53;;;;;;;1.80;1.23;;;31.60;50.10;;;;;;4976515;28;20418;-72
2023/07/19 12:08:18;;;;;;;1.70;1.60;;;31.60;51.70;;;;;;4976061;28;20212;-69
2023/07/19 12:10:44;;;;;;;2.23;2.13;;;31.60;51.60;;;;;;4975454;28;20172;-71
2023/07/19 12:13:09;;;;;;;2.20;1.73;;;31.60;51.60;;;;;;4976351;28;20199;-71
2023/07/19 12:15:35;;;;;;;1.60;1.50;;;31.80;51.10;;;;;;4975903;28;20192;-70
2023/07/19 12:18:01;;;;;;;1.70;1.10;;;31.90;50.30;;;;;;4976112;28;20177;-69
2023/07/19 12:20:27;;;;;;;2.87;1.40;;;31.80;51.10;;;;;;4976250;28;20169;-72
2023/07/19 12:22:53;;;;;;;1.60;1.50;;;31.90;52.20;;;;;;4976172;28;20445;-69
2023/07/19 12:25:19;;;;;;;1.63;1.30;;;32.00;51.30;;;;;;4975954;28;20275;-68
2023/07/19 12:27:46;;;;;;;2.00;1.70;;;32.00;51.20;;;;;;4958619;28;20423;-70
2023/07/19 12:30:12;;;;;;;1.33;1.23;;;32.00;51.00;;;;;;4976354;28;20183;-69
2023/07/19 12:32:38;;;;;;;3.77;2.03;;;32.00;50.90;;;;;;4976037;28;20760;-72
2023/07/19 12:35:05;;;;;;;2.77;1.60;;;32.00;51.70;;;;;;4975832;28;20897;-73
2023/07/19 12:37:33;;;;;;;2.37;2.17;;;32.10;52.20;;;;;;4974980;28;20397;-70
2023/07/19 12:39:59;;;;;;;2.40;2.20;;;32.10;50.90;;;;;;4976037;28;20396;-69
2023/07/19 12:42:26;;;;;;;2.43;1.57;;;32.10;51.30;;;;;;4976008;28;20440;-70
2023/07/19 12:44:51;;;;;;;2.80;2.53;;;32.20;51.70;;;;;;4975588;28;20439;-74
2023/07/19 12:47:18;;;;;;;2.70;1.97;;;32.30;52.10;;;;;;4974848;28;20398;-72
2023/07/19 12:49:44;;;;;;;2.53;1.30;;;32.40;50.80;;;;;;4976136;28;20204;-69
2023/07/19 12:52:11;;;;;;;1.87;1.77;;;32.40;50.50;;;;;;4975948;28;20390;-72
2023/07/19 12:54:37;;;;;;;1.50;1.40;;;32.30;51.50;;;;;;4975462;28;20223;-68
2023/07/19 12:57:06;;;;;;;2.23;1.77;;;32.30;51.70;;;;;;4975947;28;20435;-73
2023/07/19 12:59:31;;;;;;;2.17;1.97;;;32.20;51.30;;;;;;4956960;28;20406;-70
2023/07/19 13:02:00;;;;;;;1.70;1.60;;;32.00;51.00;;;;;;4974333;28;20977;-68
2023/07/19 13:04:26;;;;;;;1.67;1.57;;;31.80;50.90;;;;;;4974612;28;20227;-74
2023/07/19 13:06:54;;;;;;;1.97;1.87;;;31.50;52.10;;;;;;4974949;28;20410;-72
2023/07/19 13:09:20;;;;;;;1.00;1.00;;;31.40;52.70;;;;;;4974842;28;20183;-72
2023/07/19 13:11:45;;;;;;;1.50;1.40;;;31.50;52.60;;;;;;4975213;28;20416;-69
2023/07/19 13:14:13;;;;;;;1.67;1.57;;;31.60;52.50;;;;;;4957442;28;20631;-75
2023/07/19 13:16:39;;;;;;;2.93;1.50;;;31.60;52.50;;;;;;4975473;28;20258;-68
2023/07/19 13:19:04;;;;;;;5.00;2.33;;;31.60;52.20;;;;;;4975180;28;20975;-70
2023/07/19 13:21:30;;;;;;;1.83;1.73;;;31.60;52.10;;;;;;4975710;28;20681;-70
2023/07/19 13:23:56;;;;;;;1.40;1.30;;;31.50;52.30;;;;;;4957598;28;20181;-74
2023/07/19 13:26:22;;;;;;;1.97;1.87;;;31.40;53.30;;;;;;4975419;28;20812;-76
2023/07/19 13:28:48;;;;;;;1.60;1.50;;;31.40;53.80;;;;;;4975055;28;20188;-69
2023/07/19 13:31:18;;;;;;;2.20;2.10;;;31.40;53.80;;;;;;4975474;28;20630;-74
2023/07/19 13:33:43;;;;;;;2.80;2.20;;;31.50;53.60;;;;;;4974863;28;20390;-69
2023/07/19 13:36:09;;;;;;;3.50;2.23;;;31.50;53.20;;;;;;4974571;28;20447;-73
2023/07/19 13:38:34;;;;;;;1.60;1.50;;;31.40;53.60;;;;;;4975319;28;20181;-75
2023/07/19 13:41:00;;;;;;;1.63;1.53;;;31.50;54.50;;;;;;4975104;28;20196;-75
2023/07/19 13:43:26;;;;;;;2.17;2.00;;;31.50;54.80;;;;;;4975031;28;20618;-72
2023/07/19 13:45:51;;;;;;;2.03;1.93;;;31.60;54.30;;;;;;4974629;28;20693;-70
2023/07/19 13:48:17;;;;;;;2.80;2.20;;;31.70;55.10;;;;;;4974138;28;20200;-73
2023/07/19 13:50:46;;;;;;;1.90;1.70;;;31.70;54.20;;;;;;4975210;28;20176;-73
2023/07/19 13:53:11;;;;;;;2.30;2.10;;;31.60;55.60;;;;;;4956934;28;20651;-73
2023/07/19 13:55:37;;;;;;;2.50;1.73;;;31.60;56.10;;;;;;4974386;28;20444;-74
2023/07/19 13:58:03;;;;;;;1.90;1.80;;;31.70;55.50;;;;;;4974922;28;20180;-69
2023/07/19 14:00:29;;;;;;;2.73;1.97;;;31.70;55.40;;;;;;4974716;28;20535;-71
2023/07/19 14:02:55;;;;;;;1.83;1.73;;;31.60;55.30;;;;;;4974787;28;20219;-75
2023/07/19 14:05:21;;;;;;;1.73;1.63;;;31.40;54.90;;;;;;4973887;28;20430;-76
2023/07/19 14:07:47;;;;;;;2.47;2.17;;;31.20;55.20;;;;;;4974766;28;20311;-70
2023/07/19 14:10:13;;;;;;;2.67;1.90;;;30.90;56.20;;;;;;4957212;28;20511;-69
2023/07/19 14:12:39;;;;;;;2.20;2.03;;;30.80;57.20;;;;;;4974279;28;20185;-70
2023/07/19 14:15:06;;;;;;;2.30;2.10;;;30.60;56.60;;;;;;4974173;28;20202;-69
2023/07/19 14:17:32;;;;;;;2.40;2.07;;;30.60;58.00;;;;;;4974451;28;20173;-75
2023/07/19 14:19:58;;;;;;;1.90;1.77;;;30.70;57.20;;;;;;4974768;28;20481;-69
2023/07/19 14:22:24;;;;;;;2.00;1.90;;;30.70;56.20;;;;;;4974437;28;20446;-69
2023/07/19 14:24:50;;;;;;;2.53;2.33;;;30.70;56.60;;;;;;4974147;28;20710;-70
2023/07/19 14:27:15;;;;;;;2.27;2.07;;;30.80;56.60;;;;;;4974458;28;20246;-69
2023/07/19 14:29:41;;;;;;;2.63;1.73;;;30.90;57.00;;;;;;4974393;28;20195;-75
2023/07/19 14:32:09;;;;;;;1.60;1.50;;;30.90;57.50;;;;;;4974105;28;20192;-74
2023/07/19 14:34:34;;;;;;;2.00;1.90;;;31.00;56.60;;;;;;4973936;28;20671;-71
2023/07/19 14:37:00;;;;;;;1.73;1.63;;;31.00;57.00;;;;;;4974403;28;20390;-71
2023/07/19 14:39:26;;;;;;;1.80;1.70;;;31.10;56.40;;;;;;4974442;28;20642;-70
2023/07/19 14:41:53;;;;;;;2.23;1.60;;;31.00;56.90;;;;;;4973997;28;20574;-70
2023/07/19 14:44:20;;;;;;;2.10;1.90;;;30.90;56.10;;;;;;4956532;28;20885;-70
2023/07/19 14:46:47;;;;;;;2.70;2.03;;;30.90;55.90;;;;;;4974537;28;20394;-69
2023/07/19 14:49:13;;;;;;;2.40;2.20;;;30.80;57.10;;;;;;4974473;28;20407;-73
2023/07/19 14:51:38;;;;;;;3.77;1.80;;;30.70;56.50;;;;;;4974429;28;20498;-71
2023/07/19 14:54:04;;;;;;;2.67;1.87;;;30.70;56.70;;;;;;4956147;28;20446;-70
2023/07/19 14:56:30;;;;;;;1.93;1.83;;;30.70;56.50;;;;;;4974095;28;20231;-71
2023/07/19 14:58:55;;;;;;;2.07;1.97;;;30.60;56.80;;;;;;4974158;28;20674;-70
2023/07/19 15:01:21;;;;;;;2.80;2.17;;;30.40;56.70;;;;;;4977651;28;20251;-70
2023/07/19 15:03:48;;;;;;;1.87;1.73;;;30.30;56.80;;;;;;4976954;28;20543;-73
2023/07/19 15:06:14;;;;;;;2.80;2.10;;;30.10;57.00;;;;;;4977485;28;20437;-74
2023/07/19 15:08:42;;;;;;;2.80;1.73;;;30.00;57.70;;;;;;4977829;28;20799;-72
2023/07/19 15:11:08;;;;;;;2.60;2.10;;;29.90;57.20;;;;;;4977828;28;20168;-73
2023/07/19 15:13:33;;;;;;;2.20;1.67;;;29.90;57.70;;;;;;4976979;28;20424;-71
2023/07/19 15:15:59;;;;;;;1.97;1.77;;;29.80;57.80;;;;;;4977569;28;20196;-72
2023/07/19 15:18:28;;;;;;;1.60;1.50;;;29.70;57.70;;;;;;4960382;28;20386;-75
2023/07/19 15:20:54;;;;;;;1.40;1.30;;;29.60;57.90;;;;;;4977750;28;20176;-71
2023/07/19 15:23:23;;;;;;;1.93;1.83;;;29.60;57.30;;;;;;4976980;28;20398;-74
2023/07/19 15:25:48;;;;;;;1.70;1.60;;;29.70;57.40;;;;;;4977602;28;20250;-68
2023/07/19 15:28:14;;;;;;;2.97;2.03;;;29.60;56.80;;;;;;4977487;28;20746;-72
2023/07/19 15:30:39;;;;;;;2.33;2.03;;;29.60;56.90;;;;;;4977575;28;20176;-73
2023/07/19 15:33:05;;;;;;;2.07;1.90;;;29.40;56.90;;;;;;4959578;28;20192;-75
2023/07/19 15:35:31;;;;;;;1.80;1.70;;;29.30;57.40;;;;;;4977110;28;20207;-69
2023/07/19 15:37:56;;;;;;;1.70;1.60;;;29.20;57.40;;;;;;4977287;28;20195;-74
2023/07/19 15:40:22;;;;;;;2.20;2.10;;;29.20;58.20;;;;;;4977631;28;20183;-73
2023/07/19 15:42:47;;;;;;;2.30;2.10;;;29.20;58.30;;;;;;4976660;28;20200;-70
2023/07/19 15:45:13;;;;;;;1.70;1.60;;;29.20;58.20;;;;;;4976708;28;20196;-71
2023/07/19 15:47:39;;;;;;;1.70;1.60;;;29.00;58.10;;;;;;4977342;28;20251;-75
2023/07/19 15:50:05;;;;;;;1.80;1.70;;;29.00;58.20;;;;;;4977054;28;20185;-69
2023/07/19 15:52:31;;;;;;;1.67;1.57;;;29.00;57.70;;;;;;4959505;28;20409;-69
2023/07/19 15:54:56;;;;;;;2.90;1.73;;;29.00;58.00;;;;;;4976611;28;20402;-72
2023/07/19 15:57:22;;;;;;;2.70;2.17;;;29.00;57.50;;;;;;4959885;28;20606;-73
2023/07/19 15:59:48;;;;;;;1.50;1.40;;;29.00;57.70;;;;;;4977046;28;20183;-71
2023/07/19 16:02:15;;;;;;;2.13;1.93;;;29.00;57.60;;;;;;4976599;28;20265;-71
2023/07/19 16:04:41;;;;;;;2.93;1.90;;;29.00;57.60;;;;;;4958995;28;20227;-72
2023/07/19 16:07:06;;;;;;;1.73;1.63;;;28.90;58.90;;;;;;4976759;28;20470;-70
2023/07/19 16:09:32;;;;;;;2.80;1.80;;;28.90;58.80;;;;;;4959372;28;20184;-70
2023/07/19 16:11:58;;;;;;;2.50;1.70;;;28.80;59.20;;;;;;4975699;28;20741;-72
2023/07/19 16:14:23;;;;;;;1.50;1.40;;;28.80;59.80;;;;;;4975952;28;20210;-73
2023/07/19 16:16:49;;;;;;;1.57;1.53;;;28.70;59.10;;;;;;4977032;28;20559;-71
2023/07/19 16:19:17;;;;;;;2.17;1.97;;;28.60;59.10;;;;;;4958896;28;20262;-74
2023/07/19 16:21:43;;;;;;;2.53;2.33;;;28.50;59.30;;;;;;4958914;28;20688;-71
2023/07/19 16:24:09;;;;;;;1.60;1.50;;;28.40;59.90;;;;;;4975817;28;20424;-69
2023/07/19 16:26:34;;;;;;;1.63;1.53;;;28.40;59.40;;;;;;4976370;28;20387;-73
2023/07/19 16:29:00;;;;;;;2.70;1.83;;;28.30;58.60;;;;;;4976333;28;20201;-73
2023/07/19 16:31:27;;;;;;;2.77;2.30;;;28.20;57.90;;;;;;4976265;28;20186;-70
2023/07/19 16:33:52;;;;;;;1.70;1.60;;;28.10;58.20;;;;;;4976059;28;20173;-73
2023/07/19 16:36:18;;;;;;;2.17;1.97;;;28.10;58.70;;;;;;4973630;28;21007;-69
2023/07/19 16:38:44;;;;;;;1.63;1.57;;;28.00;58.90;;;;;;4967282;28;20184;-68
2023/07/19 16:41:10;;;;;;;2.40;1.60;;;28.00;59.20;;;;;;4975718;28;20210;-68
2023/07/19 16:43:36;;;;;;;2.47;2.20;;;27.90;59.80;;;;;;4975810;28;20527;-66
2023/07/19 16:46:02;;;;;;;1.47;1.37;;;27.80;59.60;;;;;;4975896;28;20440;-68
2023/07/19 16:48:27;;;;;;;3.03;1.50;;;27.80;59.20;;;;;;4975905;28;20213;-63
2023/07/19 16:50:53;;;;;;;2.03;1.87;;;27.70;59.50;;;;;;4975723;28;20417;-63